Cooranbong (lake Macquari, New South Wales

7:18 AM AEST on July 25, 2016 (GMT +1000)
| | Change Station

Elev -9999 ft 0.00 °N, 0.00 °E | Updated

Clear
Clear
53 °F
Feels Like 53 °F
N
10
Wind Variable Wind from WNW
Gusts 14 mph

Today
High -- | Low -- °F
--% Chance of Precip.
Yesterday
High -- | Low -- °F
Precip. -- in
Pressure 29.92 in
Visibility 6.2 miles
Clouds Few 1000 ft
Dew Point 40 °F
Humidity 61%
Rainfall --
Snow Depth Not available.
6:51 AM 5:12 PM
Waning Gibbous, 73% visible
SPECI YWLM 242100Z 30016KT 9999 FEW010 09/04 Q1013 FM2100 MOD TURB BLW 5000FT
Pressure 29.92 in
Visibility 6.2 miles
Clouds Few 1000 ft
Dew Point 40 °F
Humidity 61%
Rainfall --
Snow Depth Not available.
6:51 AM 5:12 PM
Waning Gibbous, 73% visible
SPECI YWLM 242100Z 30016KT 9999 FEW010 09/04 Q1013 FM2100 MOD TURB BLW 5000FT

10-Day Weather Forecast

Almanac

Astronomy

Jul. 25, 2016 Rise Set
Actual Time
Civil Twilight
Nautical Twilight
Astronomical Twilight
Moon
Length of Visible Light
Length of Day
Tomorrow will be .
, % of the Moon is Illuminated

Today's Extremes

Country Highs Country Lows

Community

WunderPhotos

Upload Photos

1,927,191 photos uploaded!

WunderBlog® & News

Nearby

Air Quality

  Air Quality AQ Index Pollutant
Not available.

Snow Depth

Station Depth Elevation

Earthquake Activity

City Distance Mag. Time & Date
Minimum magnitude displayed is 2.5.

Coastal Water Temperatures

Place Temperature

Stations

Nearby Weather Stations

Station Location Temp. Windchill Dew Point Humidity Wind Precip. Elev Updated Type